sensor_id;sensor_type;location;lat;lon;timestamp;pressure;altitude;pressure_sealevel;temperature;humidity
56176;BME280;63065;51.082;17.016;2023-04-19T00:01:47;100843.64;;;15.47;41.39
56176;BME280;63065;51.082;17.016;2023-04-19T00:04:13;100842.58;;;15.41;41.62
56176;BME280;63065;51.082;17.016;2023-04-19T00:06:39;100841.74;;;15.41;41.35
56176;BME280;63065;51.082;17.016;2023-04-19T00:09:03;100835.43;;;14.56;42.29
56176;BME280;63065;51.082;17.016;2023-04-19T00:11:29;100836.92;;;14.80;42.08
56176;BME280;63065;51.082;17.016;2023-04-19T00:13:55;100832.21;;;15.35;41.52
56176;BME280;63065;51.082;17.016;2023-04-19T00:16:20;100834.87;;;15.09;41.67
56176;BME280;63065;51.082;17.016;2023-04-19T00:18:45;100833.53;;;15.07;41.66
56176;BME280;63065;51.082;17.016;2023-04-19T00:21:11;100830.64;;;14.45;42.52
56176;BME280;63065;51.082;17.016;2023-04-19T00:23:36;100831.74;;;14.31;43.05
56176;BME280;63065;51.082;17.016;2023-04-19T00:26:02;100824.92;;;12.95;44.77
56176;BME280;63065;51.082;17.016;2023-04-19T00:28:26;100824.68;;;13.10;45.75
56176;BME280;63065;51.082;17.016;2023-04-19T00:30:52;100822.44;;;13.42;45.09
56176;BME280;63065;51.082;17.016;2023-04-19T00:33:17;100820.07;;;13.78;44.42
56176;BME280;63065;51.082;17.016;2023-04-19T00:35:43;100817.41;;;13.11;44.76
56176;BME280;63065;51.082;17.016;2023-04-19T00:38:08;100816.55;;;13.37;44.47
56176;BME280;63065;51.082;17.016;2023-04-19T00:40:34;100814.74;;;14.11;43.59
56176;BME280;63065;51.082;17.016;2023-04-19T00:42:59;100812.31;;;13.33;44.28
56176;BME280;63065;51.082;17.016;2023-04-19T00:45:25;100807.54;;;13.80;43.86
56176;BME280;63065;51.082;17.016;2023-04-19T00:47:51;100806.82;;;13.89;44.43
56176;BME280;63065;51.082;17.016;2023-04-19T00:50:16;100803.69;;;13.03;45.22
56176;BME280;63065;51.082;17.016;2023-04-19T00:52:42;100806.13;;;13.43;44.36
56176;BME280;63065;51.082;17.016;2023-04-19T00:55:07;100802.39;;;13.63;44.05
56176;BME280;63065;51.082;17.016;2023-04-19T00:57:33;100802.47;;;13.49;43.94
56176;BME280;63065;51.082;17.016;2023-04-19T00:59:58;100798.92;;;12.59;44.97
56176;BME280;63065;51.082;17.016;2023-04-19T01:02:23;100792.75;;;13.17;43.82
56176;BME280;63065;51.082;17.016;2023-04-19T01:04:49;100784.90;;;12.84;43.77
56176;BME280;63065;51.082;17.016;2023-04-19T01:07:15;100783.03;;;13.79;42.60
56176;BME280;63065;51.082;17.016;2023-04-19T01:09:41;100781.44;;;14.04;42.33
56176;BME280;63065;51.082;17.016;2023-04-19T01:12:05;100781.48;;;13.14;42.95
56176;BME280;63065;51.082;17.016;2023-04-19T01:14:30;100778.12;;;13.18;43.39
56176;BME280;63065;51.082;17.016;2023-04-19T01:16:56;100782.69;;;12.51;43.82
56176;BME280;63065;51.082;17.016;2023-04-19T01:19:20;100774.99;;;13.13;43.17
56176;BME280;63065;51.082;17.016;2023-04-19T01:21:46;100777.57;;;12.37;44.23
56176;BME280;63065;51.082;17.016;2023-04-19T01:24:12;100772.03;;;12.46;43.93
56176;BME280;63065;51.082;17.016;2023-04-19T01:26:37;100773.15;;;11.84;44.35
56176;BME280;63065;51.082;17.016;2023-04-19T01:29:02;100770.05;;;12.30;44.26
56176;BME280;63065;51.082;17.016;2023-04-19T01:31:28;100764.44;;;13.00;43.09
56176;BME280;63065;51.082;17.016;2023-04-19T01:33:53;100762.46;;;13.36;41.97
56176;BME280;63065;51.082;17.016;2023-04-19T01:36:19;100759.63;;;13.41;41.81
56176;BME280;63065;51.082;17.016;2023-04-19T01:38:44;100759.37;;;12.99;42.51
56176;BME280;63065;51.082;17.016;2023-04-19T01:41:10;100755.70;;;13.27;41.40
56176;BME280;63065;51.082;17.016;2023-04-19T01:43:35;100757.59;;;12.82;40.76
56176;BME280;63065;51.082;17.016;2023-04-19T01:46:00;100753.31;;;12.63;41.50
56176;BME280;63065;51.082;17.016;2023-04-19T01:48:26;100751.19;;;12.61;41.18
56176;BME280;63065;51.082;17.016;2023-04-19T01:50:52;100753.25;;;11.91;41.45
56176;BME280;63065;51.082;17.016;2023-04-19T01:53:17;100748.04;;;12.95;40.64
56176;BME280;63065;51.082;17.016;2023-04-19T01:55:43;100744.74;;;12.72;39.86
56176;BME280;63065;51.082;17.016;2023-04-19T01:58:07;100743.66;;;13.03;39.68
56176;BME280;63065;51.082;17.016;2023-04-19T02:00:33;100739.68;;;12.81;40.42
56176;BME280;63065;51.082;17.016;2023-04-19T02:02:59;100738.06;;;12.47;39.32
56176;BME280;63065;51.082;17.016;2023-04-19T02:05:24;100738.74;;;11.48;41.46
56176;BME280;63065;51.082;17.016;2023-04-19T02:07:49;100734.14;;;12.55;40.08
56176;BME280;63065;51.082;17.016;2023-04-19T02:10:15;100733.15;;;11.28;40.50
56176;BME280;63065;51.082;17.016;2023-04-19T02:12:41;100738.20;;;11.84;40.15
56176;BME280;63065;51.082;17.016;2023-04-19T02:15:07;100733.91;;;12.62;39.13
56176;BME280;63065;51.082;17.016;2023-04-19T02:17:32;100736.68;;;10.70;40.26
56176;BME280;63065;51.082;17.016;2023-04-19T02:19:58;100732.21;;;12.46;39.12
56176;BME280;63065;51.082;17.016;2023-04-19T02:22:23;100728.51;;;12.39;38.91
56176;BME280;63065;51.082;17.016;2023-04-19T02:24:50;100730.35;;;12.47;38.50
56176;BME280;63065;51.082;17.016;2023-04-19T02:27:15;100733.12;;;11.16;41.41
56176;BME280;63065;51.082;17.016;2023-04-19T02:29:40;100735.34;;;10.83;42.44
56176;BME280;63065;51.082;17.016;2023-04-19T02:32:05;100735.11;;;11.62;40.26
56176;BME280;63065;51.082;17.016;2023-04-19T02:34:30;100735.71;;;11.52;39.76
56176;BME280;63065;51.082;17.016;2023-04-19T02:36:55;100732.92;;;11.54;38.17
56176;BME280;63065;51.082;17.016;2023-04-19T02:39:21;100732.49;;;11.82;37.60
56176;BME280;63065;51.082;17.016;2023-04-19T02:41:48;100729.13;;;11.63;37.98
56176;BME280;63065;51.082;17.016;2023-04-19T02:44:12;100723.74;;;11.58;36.42
56176;BME280;63065;51.082;17.016;2023-04-19T02:46:38;100723.65;;;11.77;37.01
56176;BME280;63065;51.082;17.016;2023-04-19T02:49:03;100723.26;;;12.28;36.70
56176;BME280;63065;51.082;17.016;2023-04-19T02:51:28;100717.29;;;12.26;36.23
56176;BME280;63065;51.082;17.016;2023-04-19T02:53:53;100718.99;;;12.46;35.62
56176;BME280;63065;51.082;17.016;2023-04-19T02:56:19;100714.19;;;12.90;35.95
56176;BME280;63065;51.082;17.016;2023-04-19T02:58:45;100716.69;;;12.51;35.90
56176;BME280;63065;51.082;17.016;2023-04-19T03:01:10;100707.85;;;11.07;37.40
56176;BME280;63065;51.082;17.016;2023-04-19T03:03:36;100705.46;;;11.74;36.95
56176;BME280;63065;51.082;17.016;2023-04-19T03:06:02;100708.89;;;11.13;37.41
56176;BME280;63065;51.082;17.016;2023-04-19T03:08:27;100704.32;;;12.26;35.88
56176;BME280;63065;51.082;17.016;2023-04-19T03:10:53;100704.40;;;11.59;35.93
56176;BME280;63065;51.082;17.016;2023-04-19T03:13:18;100704.76;;;10.88;36.42
56176;BME280;63065;51.082;17.016;2023-04-19T03:15:44;100699.05;;;10.13;36.89
56176;BME280;63065;51.082;17.016;2023-04-19T03:18:09;100696.65;;;10.98;36.34
56176;BME280;63065;51.082;17.016;2023-04-19T03:20:34;100693.79;;;10.81;36.55
56176;BME280;63065;51.082;17.016;2023-04-19T03:22:59;100690.22;;;10.46;36.40
56176;BME280;63065;51.082;17.016;2023-04-19T03:25:25;100690.21;;;11.20;36.44
56176;BME280;63065;51.082;17.016;2023-04-19T03:27:49;100686.81;;;11.61;35.58
56176;BME280;63065;51.082;17.016;2023-04-19T03:30:15;100683.23;;;10.97;34.86
56176;BME280;63065;51.082;17.016;2023-04-19T03:32:40;100680.75;;;11.38;35.38
56176;BME280;63065;51.082;17.016;2023-04-19T03:35:06;100680.49;;;11.66;35.19
56176;BME280;63065;51.082;17.016;2023-04-19T03:37:31;100679.76;;;12.05;34.70
56176;BME280;63065;51.082;17.016;2023-04-19T03:39:57;100683.75;;;11.57;35.00
56176;BME280;63065;51.082;17.016;2023-04-19T03:42:23;100681.39;;;11.33;36.94
56176;BME280;63065;51.082;17.016;2023-04-19T03:44:48;100684.26;;;11.45;36.02
56176;BME280;63065;51.082;17.016;2023-04-19T03:47:13;100684.75;;;8.90;39.83
56176;BME280;63065;51.082;17.016;2023-04-19T03:49:39;100686.28;;;8.67;40.46
56176;BME280;63065;51.082;17.016;2023-04-19T03:52:04;100689.23;;;7.74;41.67
56176;BME280;63065;51.082;17.016;2023-04-19T03:54:30;100689.02;;;9.20;39.41
56176;BME280;63065;51.082;17.016;2023-04-19T03:56:55;100692.57;;;9.90;38.76
56176;BME280;63065;51.082;17.016;2023-04-19T03:59:21;100686.88;;;10.17;37.82
56176;BME280;63065;51.082;17.016;2023-04-19T04:01:47;100681.59;;;11.05;36.69
56176;BME280;63065;51.082;17.016;2023-04-19T04:04:12;100685.98;;;9.15;38.51
56176;BME280;63065;51.082;17.016;2023-04-19T04:06:37;100690.69;;;10.31;36.86
56176;BME280;63065;51.082;17.016;2023-04-19T04:09:03;100684.84;;;10.40;36.37
56176;BME280;63065;51.082;17.016;2023-04-19T04:11:28;100685.54;;;10.69;36.35
56176;BME280;63065;51.082;17.016;2023-04-19T04:13:54;100687.49;;;10.85;35.86
56176;BME280;63065;51.082;17.016;2023-04-19T04:16:18;100688.64;;;11.11;35.49
56176;BME280;63065;51.082;17.016;2023-04-19T04:18:44;100686.95;;;11.00;36.18
56176;BME280;63065;51.082;17.016;2023-04-19T04:21:09;100689.70;;;10.42;39.16
56176;BME280;63065;51.082;17.016;2023-04-19T04:23:35;100698.10;;;10.73;41.76
56176;BME280;63065;51.082;17.016;2023-04-19T04:26:01;100701.43;;;9.99;43.12
56176;BME280;63065;51.082;17.016;2023-04-19T04:28:25;100700.92;;;9.77;44.42
56176;BME280;63065;51.082;17.016;2023-04-19T04:30:51;100698.90;;;8.88;44.23
56176;BME280;63065;51.082;17.016;2023-04-19T04:33:16;100700.85;;;9.57;44.59
56176;BME280;63065;51.082;17.016;2023-04-19T04:35:41;100706.67;;;9.78;45.39
56176;BME280;63065;51.082;17.016;2023-04-19T04:38:07;100709.69;;;9.52;43.89
56176;BME280;63065;51.082;17.016;2023-04-19T04:40:32;100709.33;;;9.56;45.36
56176;BME280;63065;51.082;17.016;2023-04-19T04:42:57;100704.07;;;9.27;45.41
56176;BME280;63065;51.082;17.016;2023-04-19T04:45:22;100704.44;;;9.52;45.44
56176;BME280;63065;51.082;17.016;2023-04-19T04:47:48;100697.25;;;9.17;46.22
56176;BME280;63065;51.082;17.016;2023-04-19T04:50:14;100694.74;;;8.52;46.36
56176;BME280;63065;51.082;17.016;2023-04-19T04:52:39;100697.23;;;8.43;48.31
56176;BME280;63065;51.082;17.016;2023-04-19T04:55:06;100704.04;;;8.07;49.82
56176;BME280;63065;51.082;17.016;2023-04-19T04:57:30;100700.71;;;8.85;49.00
56176;BME280;63065;51.082;17.016;2023-04-19T04:59:55;100702.09;;;9.23;48.06
56176;BME280;63065;51.082;17.016;2023-04-19T05:02:21;100705.41;;;9.45;47.18
56176;BME280;63065;51.082;17.016;2023-04-19T05:04:46;100705.46;;;9.62;46.50
56176;BME280;63065;51.082;17.016;2023-04-19T05:07:11;100700.70;;;8.86;46.69
56176;BME280;63065;51.082;17.016;2023-04-19T05:09:37;100703.37;;;9.56;46.63
56176;BME280;63065;51.082;17.016;2023-04-19T05:12:03;100704.74;;;9.19;46.69
56176;BME280;63065;51.082;17.016;2023-04-19T05:14:28;100706.77;;;8.65;48.57
56176;BME280;63065;51.082;17.016;2023-04-19T05:16:53;100706.27;;;8.73;48.93
56176;BME280;63065;51.082;17.016;2023-04-19T05:19:19;100703.38;;;9.16;47.43
56176;BME280;63065;51.082;17.016;2023-04-19T05:21:44;100705.22;;;9.26;47.22
56176;BME280;63065;51.082;17.016;2023-04-19T05:24:09;100704.01;;;9.26;46.31
56176;BME280;63065;51.082;17.016;2023-04-19T05:26:35;100703.32;;;8.98;46.25
56176;BME280;63065;51.082;17.016;2023-04-19T05:29:01;100698.85;;;6.19;49.58
56176;BME280;63065;51.082;17.016;2023-04-19T05:31:26;100693.66;;;7.72;49.35
56176;BME280;63065;51.082;17.016;2023-04-19T05:33:52;100696.14;;;7.00;49.36
56176;BME280;63065;51.082;17.016;2023-04-19T05:36:17;100692.22;;;7.65;48.80
56176;BME280;63065;51.082;17.016;2023-04-19T05:38:43;100688.95;;;8.13;48.21
56176;BME280;63065;51.082;17.016;2023-04-19T05:41:08;100684.74;;;8.47;46.85
56176;BME280;63065;51.082;17.016;2023-04-19T05:43:33;100685.62;;;8.61;46.40
56176;BME280;63065;51.082;17.016;2023-04-19T05:45:58;100681.38;;;9.28;45.58
56176;BME280;63065;51.082;17.016;2023-04-19T05:48:24;100681.35;;;9.32;46.74
56176;BME280;63065;51.082;17.016;2023-04-19T05:50:49;100676.20;;;10.17;45.64
56176;BME280;63065;51.082;17.016;2023-04-19T05:53:15;100677.87;;;10.23;44.19
56176;BME280;63065;51.082;17.016;2023-04-19T05:55:41;100675.83;;;7.32;46.45
56176;BME280;63065;51.082;17.016;2023-04-19T05:58:06;100672.19;;;7.96;46.39
56176;BME280;63065;51.082;17.016;2023-04-19T06:00:31;100669.75;;;7.66;47.92
56176;BME280;63065;51.082;17.016;2023-04-19T06:02:56;100672.01;;;8.96;46.18
56176;BME280;63065;51.082;17.016;2023-04-19T06:05:21;100669.90;;;7.73;45.62
56176;BME280;63065;51.082;17.016;2023-04-19T06:07:46;100672.69;;;8.76;45.57
56176;BME280;63065;51.082;17.016;2023-04-19T06:10:12;100677.47;;;8.88;46.01
56176;BME280;63065;51.082;17.016;2023-04-19T06:12:37;100678.24;;;7.12;46.72
56176;BME280;63065;51.082;17.016;2023-04-19T06:15:03;100676.68;;;8.26;45.97
56176;BME280;63065;51.082;17.016;2023-04-19T06:17:27;100678.95;;;8.77;45.90
56176;BME280;63065;51.082;17.016;2023-04-19T06:19:53;100683.47;;;8.12;45.50
56176;BME280;63065;51.082;17.016;2023-04-19T06:22:18;100684.21;;;8.81;45.04
56176;BME280;63065;51.082;17.016;2023-04-19T06:24:44;100684.66;;;8.79;45.17
56176;BME280;63065;51.082;17.016;2023-04-19T06:27:09;100686.82;;;8.40;44.95
56176;BME280;63065;51.082;17.016;2023-04-19T06:29:34;100692.47;;;7.61;46.03
56176;BME280;63065;51.082;17.016;2023-04-19T06:32:00;100692.88;;;8.66;45.55
56176;BME280;63065;51.082;17.016;2023-04-19T06:34:25;100688.60;;;8.46;45.62
56176;BME280;63065;51.082;17.016;2023-04-19T06:36:51;100688.19;;;9.06;43.33
56176;BME280;63065;51.082;17.016;2023-04-19T06:39:16;100688.56;;;8.90;44.21
56176;BME280;63065;51.082;17.016;2023-04-19T06:41:41;100684.27;;;8.86;43.56
56176;BME280;63065;51.082;17.016;2023-04-19T06:44:07;100688.71;;;9.61;43.30
56176;BME280;63065;51.082;17.016;2023-04-19T06:46:32;100685.07;;;8.92;43.29
56176;BME280;63065;51.082;17.016;2023-04-19T06:48:58;100681.92;;;8.75;44.89
56176;BME280;63065;51.082;17.016;2023-04-19T06:51:23;100680.10;;;8.01;44.75
56176;BME280;63065;51.082;17.016;2023-04-19T06:53:49;100678.74;;;8.78;42.92
56176;BME280;63065;51.082;17.016;2023-04-19T06:56:14;100678.86;;;9.39;43.17
56176;BME280;63065;51.082;17.016;2023-04-19T06:58:39;100680.16;;;9.69;43.51
56176;BME280;63065;51.082;17.016;2023-04-19T07:01:05;100681.98;;;9.91;43.23
56176;BME280;63065;51.082;17.016;2023-04-19T07:03:30;100682.32;;;9.95;42.93
56176;BME280;63065;51.082;17.016;2023-04-19T07:05:56;100682.95;;;9.68;42.44
56176;BME280;63065;51.082;17.016;2023-04-19T07:08:22;100681.98;;;10.28;41.76
56176;BME280;63065;51.082;17.016;2023-04-19T07:10:47;100683.22;;;10.68;40.17
56176;BME280;63065;51.082;17.016;2023-04-19T07:13:12;100687.35;;;10.53;39.33
56176;BME280;63065;51.082;17.016;2023-04-19T07:15:39;100686.26;;;10.65;40.68
56176;BME280;63065;51.082;17.016;2023-04-19T07:18:04;100683.05;;;10.81;40.92
56176;BME280;63065;51.082;17.016;2023-04-19T07:20:29;100686.26;;;10.21;40.81
56176;BME280;63065;51.082;17.016;2023-04-19T07:22:55;100686.55;;;9.95;40.63
56176;BME280;63065;51.082;17.016;2023-04-19T07:25:20;100678.15;;;10.09;41.34
56176;BME280;63065;51.082;17.016;2023-04-19T07:27:46;100671.45;;;9.58;42.73
56176;BME280;63065;51.082;17.016;2023-04-19T07:30:12;100664.32;;;10.24;41.75
56176;BME280;63065;51.082;17.016;2023-04-19T07:32:37;100660.88;;;9.87;41.37
56176;BME280;63065;51.082;17.016;2023-04-19T07:35:02;100654.84;;;10.65;41.41
56176;BME280;63065;51.082;17.016;2023-04-19T07:37:28;100659.77;;;10.93;41.37
56176;BME280;63065;51.082;17.016;2023-04-19T07:39:53;100661.65;;;9.11;43.69
56176;BME280;63065;51.082;17.016;2023-04-19T07:42:18;100659.34;;;9.42;41.94
56176;BME280;63065;51.082;17.016;2023-04-19T07:44:43;100662.05;;;8.82;44.67
56176;BME280;63065;51.082;17.016;2023-04-19T07:47:09;100665.29;;;7.64;44.89
56176;BME280;63065;51.082;17.016;2023-04-19T07:49:35;100657.33;;;9.45;42.83
56176;BME280;63065;51.082;17.016;2023-04-19T07:51:59;100654.29;;;8.99;43.29
56176;BME280;63065;51.082;17.016;2023-04-19T07:54:25;100650.11;;;10.03;42.58
56176;BME280;63065;51.082;17.016;2023-04-19T07:56:50;100650.04;;;9.72;42.86
56176;BME280;63065;51.082;17.016;2023-04-19T07:59:16;100655.96;;;9.99;42.18
56176;BME280;63065;51.082;17.016;2023-04-19T08:01:41;100657.60;;;8.77;42.79
56176;BME280;63065;51.082;17.016;2023-04-19T08:04:06;100656.17;;;9.60;43.94
56176;BME280;63065;51.082;17.016;2023-04-19T08:06:32;100657.03;;;8.75;42.40
56176;BME280;63065;51.082;17.016;2023-04-19T08:08:58;100660.19;;;9.12;43.75
56176;BME280;63065;51.082;17.016;2023-04-19T08:11:23;100660.78;;;10.44;41.06
56176;BME280;63065;51.082;17.016;2023-04-19T08:13:48;100673.73;;;10.09;40.06
56176;BME280;63065;51.082;17.016;2023-04-19T08:16:14;100669.51;;;10.05;40.85
56176;BME280;63065;51.082;17.016;2023-04-19T08:18:40;100661.33;;;11.30;39.58
56176;BME280;63065;51.082;17.016;2023-04-19T08:21:05;100662.07;;;11.04;41.00
56176;BME280;63065;51.082;17.016;2023-04-19T08:23:31;100661.05;;;9.14;41.33
56176;BME280;63065;51.082;17.016;2023-04-19T08:25:56;100650.62;;;10.71;40.94
56176;BME280;63065;51.082;17.016;2023-04-19T08:28:22;100644.64;;;8.21;41.70
56176;BME280;63065;51.082;17.016;2023-04-19T08:30:47;100644.14;;;9.74;40.78
56176;BME280;63065;51.082;17.016;2023-04-19T08:33:13;100645.04;;;9.71;42.55
56176;BME280;63065;51.082;17.016;2023-04-19T08:35:40;100643.91;;;10.72;41.83
56176;BME280;63065;51.082;17.016;2023-04-19T08:38:04;100653.96;;;9.94;41.02
56176;BME280;63065;51.082;17.016;2023-04-19T08:40:30;100651.28;;;10.70;40.90
56176;BME280;63065;51.082;17.016;2023-04-19T08:42:56;100654.80;;;10.39;39.63
56176;BME280;63065;51.082;17.016;2023-04-19T08:45:23;100659.62;;;10.49;39.84
56176;BME280;63065;51.082;17.016;2023-04-19T08:47:46;100655.14;;;10.19;39.53
56176;BME280;63065;51.082;17.016;2023-04-19T08:50:12;100650.97;;;10.56;40.82
56176;BME280;63065;51.082;17.016;2023-04-19T08:52:37;100659.75;;;9.73;42.27
56176;BME280;63065;51.082;17.016;2023-04-19T08:55:04;100659.50;;;8.62;42.91
56176;BME280;63065;51.082;17.016;2023-04-19T08:57:30;100659.83;;;8.23;43.88
56176;BME280;63065;51.082;17.016;2023-04-19T08:59:54;100661.23;;;6.55;46.34
56176;BME280;63065;51.082;17.016;2023-04-19T09:02:19;100657.44;;;7.83;45.72
56176;BME280;63065;51.082;17.016;2023-04-19T09:04:44;100661.75;;;6.75;47.48
56176;BME280;63065;51.082;17.016;2023-04-19T09:09:36;100653.50;;;6.77;47.20
56176;BME280;63065;51.082;17.016;2023-04-19T09:12:01;100657.25;;;6.01;47.99
56176;BME280;63065;51.082;17.016;2023-04-19T09:14:27;100653.16;;;7.21;46.81
56176;BME280;63065;51.082;17.016;2023-04-19T09:16:52;100651.10;;;8.83;44.41
56176;BME280;63065;51.082;17.016;2023-04-19T09:19:18;100645.95;;;9.73;42.22
56176;BME280;63065;51.082;17.016;2023-04-19T09:21:45;100637.30;;;10.52;41.02
56176;BME280;63065;51.082;17.016;2023-04-19T09:24:09;100642.05;;;11.41;39.29
56176;BME280;63065;51.082;17.016;2023-04-19T09:26:35;100647.52;;;9.11;41.76
56176;BME280;63065;51.082;17.016;2023-04-19T09:29:00;100642.49;;;9.31;42.92
56176;BME280;63065;51.082;17.016;2023-04-19T09:31:26;100642.14;;;8.97;43.24
56176;BME280;63065;51.082;17.016;2023-04-19T09:33:51;100639.64;;;9.44;42.87
56176;BME280;63065;51.082;17.016;2023-04-19T09:38:46;100636.68;;;7.91;44.37
56176;BME280;63065;51.082;17.016;2023-04-19T09:41:07;100641.58;;;7.38;45.02
56176;BME280;63065;51.082;17.016;2023-04-19T09:43:32;100645.69;;;6.76;46.15
56176;BME280;63065;51.082;17.016;2023-04-19T09:45:57;100641.62;;;8.45;45.34
56176;BME280;63065;51.082;17.016;2023-04-19T09:48:23;100646.60;;;7.43;45.27
56176;BME280;63065;51.082;17.016;2023-04-19T09:50:51;100643.16;;;7.93;46.26
56176;BME280;63065;51.082;17.016;2023-04-19T09:53:14;100639.31;;;8.78;44.82
56176;BME280;63065;51.082;17.016;2023-04-19T09:55:40;100637.55;;;9.85;43.08
56176;BME280;63065;51.082;17.016;2023-04-19T09:58:05;100640.02;;;7.46;44.98
56176;BME280;63065;51.082;17.016;2023-04-19T10:00:30;100643.61;;;9.77;42.90
56176;BME280;63065;51.082;17.016;2023-04-19T10:02:57;100645.79;;;10.00;42.15
56176;BME280;63065;51.082;17.016;2023-04-19T10:05:21;100640.98;;;10.24;41.26
56176;BME280;63065;51.082;17.016;2023-04-19T10:07:48;100637.07;;;10.67;40.98
56176;BME280;63065;51.082;17.016;2023-04-19T10:10:14;100641.23;;;11.17;40.33
56176;BME280;63065;51.082;17.016;2023-04-19T10:12:38;100642.07;;;7.53;44.19
56176;BME280;63065;51.082;17.016;2023-04-19T10:15:03;100647.96;;;8.75;43.37
56176;BME280;63065;51.082;17.016;2023-04-19T10:17:29;100647.22;;;9.68;42.69
56176;BME280;63065;51.082;17.016;2023-04-19T10:19:58;100645.56;;;10.17;42.25
56176;BME280;63065;51.082;17.016;2023-04-19T10:22:19;100643.59;;;10.16;41.32
56176;BME280;63065;51.082;17.016;2023-04-19T10:27:11;100634.45;;;10.72;40.36
56176;BME280;63065;51.082;17.016;2023-04-19T10:32:03;100625.56;;;10.26;42.65
56176;BME280;63065;51.082;17.016;2023-04-19T10:36:52;100619.84;;;11.00;40.99
56176;BME280;63065;51.082;17.016;2023-04-19T10:44:09;100615.60;;;11.72;38.83
56176;BME280;63065;51.082;17.016;2023-04-19T10:46:38;100623.63;;;9.35;42.51
56176;BME280;63065;51.082;17.016;2023-04-19T10:49:00;100618.21;;;11.08;41.03
56176;BME280;63065;51.082;17.016;2023-04-19T10:51:27;100619.00;;;10.24;41.42
56176;BME280;63065;51.082;17.016;2023-04-19T10:53:53;100618.52;;;9.97;41.67
56176;BME280;63065;51.082;17.016;2023-04-19T10:56:17;100621.69;;;8.88;42.92
56176;BME280;63065;51.082;17.016;2023-04-19T11:08:24;100613.00;;;6.70;46.65
56176;BME280;63065;51.082;17.016;2023-04-19T11:10:49;100615.08;;;8.30;46.44
56176;BME280;63065;51.082;17.016;2023-04-19T11:13:15;100622.44;;;8.60;45.58
56176;BME280;63065;51.082;17.016;2023-04-19T11:15:42;100616.19;;;9.92;43.22
56176;BME280;63065;51.082;17.016;2023-04-19T11:18:06;100610.56;;;10.50;42.49
56176;BME280;63065;51.082;17.016;2023-04-19T11:20:30;100609.38;;;11.20;41.82
56176;BME280;63065;51.082;17.016;2023-04-19T11:22:56;100611.54;;;10.36;41.68
56176;BME280;63065;51.082;17.016;2023-04-19T11:25:21;100610.93;;;11.61;41.21
56176;BME280;63065;51.082;17.016;2023-04-19T11:27:47;100613.37;;;7.83;45.72
56176;BME280;63065;51.082;17.016;2023-04-19T11:30:13;100610.23;;;8.95;44.97
56176;BME280;63065;51.082;17.016;2023-04-19T11:32:37;100601.71;;;10.12;43.17
56176;BME280;63065;51.082;17.016;2023-04-19T11:35:05;100605.19;;;10.36;42.22
56176;BME280;63065;51.082;17.016;2023-04-19T11:37:31;100610.85;;;9.42;43.05
56176;BME280;63065;51.082;17.016;2023-04-19T11:39:54;100608.87;;;10.43;42.23
56176;BME280;63065;51.082;17.016;2023-04-19T11:42:20;100613.43;;;7.45;45.78
56176;BME280;63065;51.082;17.016;2023-04-19T11:44:50;100616.83;;;8.69;45.83
56176;BME280;63065;51.082;17.016;2023-04-19T11:47:11;100617.13;;;8.10;46.45
56176;BME280;63065;51.082;17.016;2023-04-19T11:49:36;100617.05;;;8.06;47.21
56176;BME280;63065;51.082;17.016;2023-04-19T11:52:04;100623.89;;;9.07;46.48
56176;BME280;63065;51.082;17.016;2023-04-19T11:54:27;100619.32;;;7.82;47.44
56176;BME280;63065;51.082;17.016;2023-04-19T11:56:57;100620.94;;;9.93;44.50
56176;BME280;63065;51.082;17.016;2023-04-19T11:59:17;100625.62;;;9.80;43.46
56176;BME280;63065;51.082;17.016;2023-04-19T12:01:43;100619.43;;;7.67;47.44
56176;BME280;63065;51.082;17.016;2023-04-19T12:04:09;100621.80;;;7.31;48.78
56176;BME280;63065;51.082;17.016;2023-04-19T12:06:34;100624.05;;;7.46;48.95
56176;BME280;63065;51.082;17.016;2023-04-19T12:09:05;100622.43;;;8.51;48.11
56176;BME280;63065;51.082;17.016;2023-04-19T12:11:40;100623.35;;;8.01;46.58
56176;BME280;63065;51.082;17.016;2023-04-19T12:18:43;100619.15;;;8.77;45.78
56176;BME280;63065;51.082;17.016;2023-04-19T12:21:06;100619.91;;;9.06;45.12
56176;BME280;63065;51.082;17.016;2023-04-19T12:23:31;100616.12;;;7.84;47.83
56176;BME280;63065;51.082;17.016;2023-04-19T12:25:57;100614.85;;;9.49;45.75
56176;BME280;63065;51.082;17.016;2023-04-19T12:28:22;100613.89;;;9.74;44.89
56176;BME280;63065;51.082;17.016;2023-04-19T12:30:48;100607.42;;;10.44;43.99
56176;BME280;63065;51.082;17.016;2023-04-19T12:33:13;100608.73;;;10.16;43.99
56176;BME280;63065;51.082;17.016;2023-04-19T12:35:40;100617.56;;;7.29;47.83
56176;BME280;63065;51.082;17.016;2023-04-19T12:38:05;100615.40;;;6.42;51.56
56176;BME280;63065;51.082;17.016;2023-04-19T12:40:31;100617.83;;;6.50;51.90
56176;BME280;63065;51.082;17.016;2023-04-19T12:42:55;100614.29;;;7.38;50.98
56176;BME280;63065;51.082;17.016;2023-04-19T12:45:21;100611.16;;;7.28;49.09
56176;BME280;63065;51.082;17.016;2023-04-19T12:47:48;100615.18;;;8.29;48.01
56176;BME280;63065;51.082;17.016;2023-04-19T12:50:14;100615.50;;;9.13;47.72
56176;BME280;63065;51.082;17.016;2023-04-19T12:52:38;100615.52;;;8.88;46.83
56176;BME280;63065;51.082;17.016;2023-04-19T12:55:03;100612.13;;;9.22;46.84
56176;BME280;63065;51.082;17.016;2023-04-19T12:57:28;100614.39;;;9.73;44.57
56176;BME280;63065;51.082;17.016;2023-04-19T12:59:53;100614.17;;;10.39;43.93
56176;BME280;63065;51.082;17.016;2023-04-19T13:02:19;100617.69;;;9.09;46.34
56176;BME280;63065;51.082;17.016;2023-04-19T13:04:44;100617.45;;;10.32;44.64
56176;BME280;63065;51.082;17.016;2023-04-19T13:07:09;100620.43;;;8.92;45.71